NOZ547 ENZV-ENGM
Flight info
| Callsign | NOZ547 |
|---|---|
| Flight time | N/A |
| Altitude | 29000 |
| Route | UPLEV DCT OSKOM DCT RIPAM |
| Aircraft | B738/M-SDE2E3FGHIRWXY/LB1 |
Departure
| Time | 2026-05-06 17:12 |
|---|---|
| Airport | Stavanger Airport, Sola (ENZV) |
Arrival
| Time | N/A |
|---|---|
| Airport | Oslo-Gardermoen International Airport (ENGM) |
| Time | Latitude | Longitude | Altitude | Speed | Heading |
|---|---|---|---|---|---|
| 2026-05-06 16:44 | 58.88197 | 5.63110 | 25 ft | 0 kts | 285° |
| 2026-05-06 17:01 | 58.88195 | 5.63124 | 25 ft | 2 kts | 285° |
| 2026-05-06 17:02 | 58.88191 | 5.63152 | 25 ft | 2 kts | 285° |
| 2026-05-06 17:02 | 58.88188 | 5.63180 | 25 ft | 2 kts | 285° |
| 2026-05-06 17:02 | 58.88184 | 5.63208 | 26 ft | 2 kts | 285° |
| 2026-05-06 17:02 | 58.88180 | 5.63236 | 26 ft | 2 kts | 285° |
| 2026-05-06 17:03 | 58.88176 | 5.63264 | 27 ft | 2 kts | 285° |
| 2026-05-06 17:03 | 58.88174 | 5.63276 | 27 ft | 0 kts | 285° |
| 2026-05-06 17:06 | 58.88174 | 5.63275 | 27 ft | 0 kts | 274° |
| 2026-05-06 17:06 | 58.88173 | 5.63271 | 27 ft | 0 kts | 236° |
| 2026-05-06 17:06 | 58.88154 | 5.63258 | 27 ft | 5 kts | 197° |
| 2026-05-06 17:07 | 58.88098 | 5.63222 | 26 ft | 11 kts | 205° |
| 2026-05-06 17:07 | 58.88034 | 5.63237 | 27 ft | 8 kts | 137° |
| 2026-05-06 17:07 | 58.88001 | 5.63314 | 28 ft | 6 kts | 129° |
| 2026-05-06 17:07 | 58.87950 | 5.63366 | 29 ft | 11 kts | 190° |
| 2026-05-06 17:08 | 58.87860 | 5.63300 | 29 ft | 13 kts | 204° |
| 2026-05-06 17:08 | 58.87774 | 5.63287 | 29 ft | 12 kts | 180° |
| 2026-05-06 17:08 | 58.87692 | 5.63290 | 29 ft | 12 kts | 179° |
| 2026-05-06 17:08 | 58.87601 | 5.63292 | 29 ft | 14 kts | 180° |
| 2026-05-06 17:09 | 58.87492 | 5.63295 | 27 ft | 17 kts | 179° |
| 2026-05-06 17:09 | 58.87366 | 5.63298 | 27 ft | 19 kts | 179° |
| 2026-05-06 17:09 | 58.87238 | 5.63303 | 28 ft | 17 kts | 179° |
| 2026-05-06 17:09 | 58.87128 | 5.63306 | 30 ft | 14 kts | 179° |
| 2026-05-06 17:10 | 58.87034 | 5.63331 | 30 ft | 12 kts | 159° |
| 2026-05-06 17:10 | 58.86997 | 5.63446 | 32 ft | 9 kts | 95° |
| 2026-05-06 17:10 | 58.87010 | 5.63552 | 34 ft | 8 kts | 66° |
| 2026-05-06 17:10 | 58.87043 | 5.63677 | 36 ft | 9 kts | 63° |
| 2026-05-06 17:11 | 58.87082 | 5.63780 | 36 ft | 10 kts | 31° |
| 2026-05-06 17:11 | 58.87145 | 5.63796 | 35 ft | 10 kts | 359° |
| 2026-05-06 17:11 | 58.87363 | 5.63790 | 31 ft | 63 kts | 359° |
| 2026-05-06 17:11 | 58.88015 | 5.63774 | 33 ft | 121 kts | 359° |
| 2026-05-06 17:12 | 58.89015 | 5.63765 | 98 ft | 157 kts | 3° |
| 2026-05-06 17:12 | 58.90076 | 5.63840 | 708 ft | 153 kts | 3° |
| 2026-05-06 17:12 | 58.91147 | 5.63909 | 1215 ft | 161 kts | 20° |
| 2026-05-06 17:12 | 58.92218 | 5.64812 | 1598 ft | 173 kts | 25° |
| 2026-05-06 17:13 | 58.93115 | 5.66323 | 2009 ft | 185 kts | 64° |
| 2026-05-06 17:13 | 58.93937 | 5.68240 | 2251 ft | 191 kts | 43° |
| 2026-05-06 17:13 | 58.95029 | 5.69851 | 2403 ft | 206 kts | 27° |
| 2026-05-06 17:13 | 58.96475 | 5.70331 | 2531 ft | 223 kts | 352° |
| 2026-05-06 17:14 | 58.97920 | 5.69088 | 3007 ft | 231 kts | 332° |
| 2026-05-06 17:14 | 58.99268 | 5.67188 | 3284 ft | 248 kts | 321° |
| 2026-05-06 17:14 | 59.00534 | 5.64988 | 3934 ft | 247 kts | 328° |
| 2026-05-06 17:14 | 59.02105 | 5.63622 | 4461 ft | 250 kts | 354° |
| 2026-05-06 17:15 | 59.03802 | 5.63966 | 5028 ft | 253 kts | 22° |
| 2026-05-06 17:15 | 59.05339 | 5.65652 | 5543 ft | 260 kts | 40° |
| 2026-05-06 17:15 | 59.06452 | 5.68427 | 6190 ft | 265 kts | 68° |
| 2026-05-06 17:15 | 59.06818 | 5.71947 | 6747 ft | 272 kts | 86° |
| 2026-05-06 17:16 | 59.06877 | 5.75631 | 7280 ft | 277 kts | 89° |
| 2026-05-06 17:16 | 59.06914 | 5.79349 | 7814 ft | 281 kts | 88° |
| 2026-05-06 17:16 | 59.06988 | 5.83186 | 8396 ft | 285 kts | 87° |
| 2026-05-06 17:16 | 59.07097 | 5.87060 | 8925 ft | 290 kts | 86° |
| 2026-05-06 17:17 | 59.07223 | 5.90965 | 9469 ft | 294 kts | 86° |
| 2026-05-06 17:17 | 59.07355 | 5.94926 | 10002 ft | 300 kts | 86° |
| 2026-05-06 17:17 | 59.07490 | 5.99070 | 10354 ft | 313 kts | 86° |
| 2026-05-06 17:17 | 59.07676 | 6.03370 | 10590 ft | 327 kts | 80° |
| 2026-05-06 17:18 | 59.08326 | 6.07666 | 10822 ft | 338 kts | 68° |
| 2026-05-06 17:18 | 59.09305 | 6.11934 | 10979 ft | 353 kts | 64° |
| 2026-05-06 17:18 | 59.10391 | 6.16251 | 11141 ft | 368 kts | 63° |
| 2026-05-06 17:18 | 59.11520 | 6.20805 | 11319 ft | 382 kts | 64° |
| 2026-05-06 17:19 | 59.12660 | 6.25603 | 11674 ft | 390 kts | 65° |
| 2026-05-06 17:19 | 59.13761 | 6.30381 | 12107 ft | 395 kts | 66° |
| 2026-05-06 17:19 | 59.14876 | 6.35283 | 12620 ft | 400 kts | 66° |
| 2026-05-06 17:19 | 59.15999 | 6.40258 | 13082 ft | 405 kts | 66° |
| 2026-05-06 17:20 | 59.17144 | 6.45341 | 13540 ft | 410 kts | 66° |
| 2026-05-06 17:20 | 59.18298 | 6.50446 | 14033 ft | 415 kts | 66° |
| 2026-05-06 17:20 | 59.19470 | 6.55631 | 14521 ft | 420 kts | 66° |
| 2026-05-06 17:20 | 59.20655 | 6.60867 | 15034 ft | 425 kts | 66° |
| 2026-05-06 17:21 | 59.21843 | 6.66126 | 15522 ft | 430 kts | 67° |
| 2026-05-06 17:21 | 59.23054 | 6.71508 | 16049 ft | 433 kts | 67° |
| 2026-05-06 17:21 | 59.24257 | 6.76865 | 16500 ft | 438 kts | 67° |
| 2026-05-06 17:21 | 59.25486 | 6.82361 | 17038 ft | 441 kts | 67° |
| 2026-05-06 17:22 | 59.26709 | 6.87862 | 17499 ft | 445 kts | 67° |
| 2026-05-06 17:22 | 59.27936 | 6.93398 | 17926 ft | 450 kts | 66° |
| 2026-05-06 17:22 | 59.29187 | 6.99065 | 18354 ft | 455 kts | 66° |
| 2026-05-06 17:22 | 59.30435 | 7.04719 | 18811 ft | 459 kts | 66° |
| 2026-05-06 17:23 | 59.31707 | 7.10509 | 19242 ft | 463 kts | 66° |
| 2026-05-06 17:23 | 59.32970 | 7.16326 | 19712 ft | 466 kts | 67° |
| 2026-05-06 17:23 | 59.34230 | 7.22161 | 20137 ft | 469 kts | 67° |
| 2026-05-06 17:23 | 59.35491 | 7.27995 | 20585 ft | 472 kts | 66° |
| 2026-05-06 17:24 | 59.36779 | 7.33943 | 20986 ft | 476 kts | 66° |
| 2026-05-06 17:24 | 59.38084 | 7.39970 | 21424 ft | 479 kts | 66° |
| 2026-05-06 17:24 | 59.39375 | 7.45934 | 21830 ft | 482 kts | 66° |
| 2026-05-06 17:24 | 59.40693 | 7.52033 | 22179 ft | 486 kts | 66° |
| 2026-05-06 17:25 | 59.42005 | 7.58086 | 22587 ft | 488 kts | 66° |
| 2026-05-06 17:25 | 59.43342 | 7.64262 | 22918 ft | 493 kts | 66° |
| 2026-05-06 17:25 | 59.44630 | 7.70224 | 23267 ft | 495 kts | 67° |
| 2026-05-06 17:25 | 59.45945 | 7.76337 | 23670 ft | 498 kts | 67° |
| 2026-05-06 17:26 | 59.47277 | 7.82553 | 23926 ft | 503 kts | 68° |
| 2026-05-06 17:26 | 59.48619 | 7.88833 | 24372 ft | 503 kts | 67° |
| 2026-05-06 17:26 | 59.49964 | 7.95155 | 24639 ft | 507 kts | 67° |
| 2026-05-06 17:26 | 59.51329 | 8.01566 | 24950 ft | 511 kts | 67° |
| 2026-05-06 17:27 | 59.52707 | 8.08030 | 25305 ft | 512 kts | 67° |
| 2026-05-06 17:27 | 59.54091 | 8.14538 | 25590 ft | 516 kts | 67° |
| 2026-05-06 17:27 | 59.55456 | 8.21000 | 26099 ft | 514 kts | 68° |
| 2026-05-06 17:27 | 59.56820 | 8.27477 | 26516 ft | 513 kts | 68° |
| 2026-05-06 17:28 | 59.58184 | 8.33954 | 26876 ft | 514 kts | 68° |
| 2026-05-06 17:28 | 59.59545 | 8.40427 | 27242 ft | 514 kts | 68° |
| 2026-05-06 17:28 | 59.60910 | 8.46937 | 27470 ft | 518 kts | 68° |
| 2026-05-06 17:28 | 59.62275 | 8.53456 | 27887 ft | 517 kts | 68° |
| 2026-05-06 17:29 | 59.63628 | 8.59937 | 28167 ft | 518 kts | 68° |
| 2026-05-06 17:29 | 59.64986 | 8.66473 | 28475 ft | 519 kts | 70° |
| 2026-05-06 17:29 | 59.66327 | 8.72977 | 28827 ft | 517 kts | 69° |
| 2026-05-06 17:30 | 59.69012 | 8.86105 | 28884 ft | 518 kts | 70° |
| 2026-05-06 17:30 | 59.71701 | 8.99353 | 28892 ft | 519 kts | 70° |
| 2026-05-06 17:30 | 59.73028 | 9.05927 | 28393 ft | 519 kts | 69° |
| 2026-05-06 17:31 | 59.74364 | 9.12581 | 27693 ft | 513 kts | 69° |
| 2026-05-06 17:31 | 59.75655 | 9.19036 | 27104 ft | 505 kts | 69° |
| 2026-05-06 17:31 | 59.76928 | 9.25413 | 26464 ft | 499 kts | 69° |
| 2026-05-06 17:31 | 59.78202 | 9.31834 | 25689 ft | 494 kts | 69° |
| 2026-05-06 17:32 | 59.79405 | 9.38072 | 25068 ft | 487 kts | 70° |
| 2026-05-06 17:32 | 59.80575 | 9.44353 | 24328 ft | 482 kts | 70° |
| 2026-05-06 17:32 | 59.81713 | 9.50543 | 23687 ft | 474 kts | 70° |
| 2026-05-06 17:32 | 59.82816 | 9.56611 | 22895 ft | 471 kts | 70° |
| 2026-05-06 17:33 | 59.83931 | 9.62739 | 22181 ft | 464 kts | 70° |
| 2026-05-06 17:33 | 59.85010 | 9.68664 | 21531 ft | 458 kts | 71° |
| 2026-05-06 17:33 | 59.86081 | 9.74551 | 20768 ft | 453 kts | 71° |
| 2026-05-06 17:33 | 59.87142 | 9.80375 | 20038 ft | 449 kts | 71° |
| 2026-05-06 17:34 | 59.88195 | 9.86165 | 19374 ft | 442 kts | 71° |
| 2026-05-06 17:34 | 59.89234 | 9.91873 | 18650 ft | 438 kts | 71° |
| 2026-05-06 17:34 | 59.90266 | 9.97501 | 18326 ft | 423 kts | 71° |
| 2026-05-06 17:34 | 59.91244 | 10.02846 | 18103 ft | 407 kts | 71° |
| 2026-05-06 17:35 | 59.92387 | 10.07901 | 17762 ft | 392 kts | 55° |
| 2026-05-06 17:35 | 59.93958 | 10.12129 | 17641 ft | 373 kts | 53° |
| 2026-05-06 17:35 | 59.95422 | 10.16392 | 17189 ft | 367 kts | 51° |
| 2026-05-06 17:36 | 59.98810 | 10.23168 | 16852 ft | 330 kts | 33° |
| 2026-05-06 17:36 | 60.00664 | 10.25837 | 16286 ft | 331 kts | 31° |
| 2026-05-06 17:36 | 60.02571 | 10.28431 | 15860 ft | 332 kts | 30° |
| 2026-05-06 17:36 | 60.04505 | 10.31014 | 15853 ft | 343 kts | 30° |
| 2026-05-06 17:37 | 60.06521 | 10.33746 | 15810 ft | 355 kts | 33° |
| 2026-05-06 17:37 | 60.08414 | 10.36873 | 15374 ft | 359 kts | 40° |
| 2026-05-06 17:37 | 60.10206 | 10.40350 | 14532 ft | 365 kts | 44° |
| 2026-05-06 17:37 | 60.11995 | 10.43986 | 13808 ft | 365 kts | 44° |
| 2026-05-06 17:38 | 60.13770 | 10.47548 | 13364 ft | 362 kts | 44° |
| 2026-05-06 17:38 | 60.15550 | 10.51025 | 12641 ft | 364 kts | 43° |
| 2026-05-06 17:38 | 60.17364 | 10.54471 | 12214 ft | 353 kts | 43° |
| 2026-05-06 17:38 | 60.19149 | 10.57789 | 11615 ft | 351 kts | 43° |
| 2026-05-06 17:39 | 60.20922 | 10.61069 | 10919 ft | 343 kts | 43° |
| 2026-05-06 17:39 | 60.22643 | 10.64222 | 10579 ft | 325 kts | 42° |
| 2026-05-06 17:39 | 60.24279 | 10.67179 | 10308 ft | 306 kts | 43° |
| 2026-05-06 17:39 | 60.25819 | 10.69944 | 10003 ft | 292 kts | 43° |
| 2026-05-06 17:40 | 60.27298 | 10.72601 | 9692 ft | 279 kts | 43° |
| 2026-05-06 17:40 | 60.28702 | 10.75137 | 9408 ft | 267 kts | 44° |
| 2026-05-06 17:40 | 60.30067 | 10.77643 | 9150 ft | 271 kts | 44° |
| 2026-05-06 17:40 | 60.31485 | 10.80252 | 8814 ft | 279 kts | 43° |
| 2026-05-06 17:41 | 60.32897 | 10.82864 | 8507 ft | 272 kts | 44° |
| 2026-05-06 17:41 | 60.34251 | 10.85393 | 8234 ft | 264 kts | 44° |
| 2026-05-06 17:41 | 60.35612 | 10.87942 | 7966 ft | 267 kts | 44° |
| 2026-05-06 17:41 | 60.36967 | 10.90477 | 7662 ft | 271 kts | 44° |
| 2026-05-06 17:42 | 60.38354 | 10.93072 | 7359 ft | 265 kts | 44° |
| 2026-05-06 17:42 | 60.39677 | 10.95545 | 7096 ft | 259 kts | 44° |
| 2026-05-06 17:42 | 60.40995 | 10.98001 | 6820 ft | 264 kts | 44° |
| 2026-05-06 17:42 | 60.42359 | 11.00561 | 6506 ft | 262 kts | 44° |
| 2026-05-06 17:43 | 60.43660 | 11.03024 | 6230 ft | 254 kts | 45° |
| 2026-05-06 17:43 | 60.44835 | 11.05606 | 6021 ft | 246 kts | 59° |
| 2026-05-06 17:43 | 60.45287 | 11.08801 | 5774 ft | 238 kts | 98° |
| 2026-05-06 17:43 | 60.44722 | 11.11807 | 5564 ft | 226 kts | 139° |
| 2026-05-06 17:44 | 60.43653 | 11.13932 | 5509 ft | 206 kts | 140° |
| 2026-05-06 17:44 | 60.42616 | 11.15803 | 5338 ft | 206 kts | 136° |
| 2026-05-06 17:44 | 60.41823 | 11.18216 | 5151 ft | 205 kts | 121° |
| 2026-05-06 17:44 | 60.41028 | 11.20541 | 4872 ft | 200 kts | 135° |
| 2026-05-06 17:45 | 60.40073 | 11.22373 | 4883 ft | 179 kts | 156° |
| 2026-05-06 17:45 | 60.38930 | 11.22860 | 4802 ft | 173 kts | 215° |